Yerkes, Kentucky
Current Conditions -  °F | °C
As of 8:53 PM on Thursday 20 Nov 2014 (Local Time) from KJKL Reporting Station
Clear Clear  
Wind Chill: 24°   Ceiling: Unl
Heat Index: 29°   Visibility: 10mi
Dew Point: 17°   Wind: 5mph
Humidity: 61%   Direction: 280°W
Pressure: 30.19"   Gusts: NA
Location:  37.28°N, 83.3°W
Report Text: KJKL 210153Z AUTO 28004KT 10SM CLR M02/M08 A3019 RMK AO2 SLP235 T10171083
Loading
Personal Weather Stations






























Interactive Weather Map New forecast layout! Learn more

10-Day Weather Forecast

Advertisements
Track Severe Weather on mobile